< < Back
Terminal Aerodrome Forecast


Current Version              Previous Versions:   1  2  3  4  5  6  7  8  9  

Terminal Aerodrome Forecast

519
FTUS44 KBMX 301100
TAFBHM
TAF
KBHM 301124Z 3012/3112 35006KT P6SM SKC
     FM310300 34002KT P6SM BKN150=

Latest METAR

697
SAUS70 KWBC 301400 RRJ
MTRBHM
METAR KBHM 301353Z 00000KT 10SM CLR 11/07 A3016 RMK AO2 SLP211
T01060072


USA.gov is the U.S. government's official web portal to all federal, state and local government web resources and services.